sensor_id;sensor_type;location;lat;lon;timestamp;pressure;altitude;pressure_sealevel;temperature;humidity
15477;BME280;7840;42.702;23.296;2023-08-08T00:01:52;94893.34;;;15.50;100.00
15477;BME280;7840;42.702;23.296;2023-08-08T00:04:20;94893.19;;;15.37;100.00
15477;BME280;7840;42.702;23.296;2023-08-08T00:06:48;94899.47;;;15.51;100.00
15477;BME280;7840;42.702;23.296;2023-08-08T00:09:15;94894.13;;;15.51;100.00
15477;BME280;7840;42.702;23.296;2023-08-08T00:11:43;94899.63;;;15.36;100.00
15477;BME280;7840;42.702;23.296;2023-08-08T00:14:11;94901.19;;;15.37;100.00
15477;BME280;7840;42.702;23.296;2023-08-08T00:16:38;94895.28;;;15.45;100.00
15477;BME280;7840;42.702;23.296;2023-08-08T00:19:06;94896.94;;;15.36;100.00
15477;BME280;7840;42.702;23.296;2023-08-08T00:21:35;94900.41;;;15.36;100.00
15477;BME280;7840;42.702;23.296;2023-08-08T00:24:03;94901.28;;;15.31;100.00
15477;BME280;7840;42.702;23.296;2023-08-08T00:26:31;94898.63;;;15.26;100.00
15477;BME280;7840;42.702;23.296;2023-08-08T00:28:58;94907.78;;;15.15;100.00
15477;BME280;7840;42.702;23.296;2023-08-08T00:31:26;94914.81;;;15.06;100.00
15477;BME280;7840;42.702;23.296;2023-08-08T00:33:54;94921.19;;;15.10;100.00
15477;BME280;7840;42.702;23.296;2023-08-08T00:36:21;94917.97;;;15.08;100.00
15477;BME280;7840;42.702;23.296;2023-08-08T00:38:50;94919.81;;;15.13;100.00
15477;BME280;7840;42.702;23.296;2023-08-08T00:41:18;94912.19;;;14.96;100.00
15477;BME280;7840;42.702;23.296;2023-08-08T00:43:45;94913.59;;;14.88;100.00
15477;BME280;7840;42.702;23.296;2023-08-08T00:46:14;94909.53;;;14.96;100.00
15477;BME280;7840;42.702;23.296;2023-08-08T00:48:42;94930.84;;;14.96;100.00
15477;BME280;7840;42.702;23.296;2023-08-08T00:51:09;94935.16;;;14.97;100.00
15477;BME280;7840;42.702;23.296;2023-08-08T00:53:37;94939.41;;;14.98;100.00
15477;BME280;7840;42.702;23.296;2023-08-08T00:56:06;94938.44;;;14.84;100.00
15477;BME280;7840;42.702;23.296;2023-08-08T00:58:34;94930.44;;;14.78;100.00
15477;BME280;7840;42.702;23.296;2023-08-08T01:01:01;94935.78;;;14.78;100.00
15477;BME280;7840;42.702;23.296;2023-08-08T01:03:29;94928.38;;;14.70;100.00
15477;BME280;7840;42.702;23.296;2023-08-08T01:06:01;94932.94;;;14.65;100.00
15477;BME280;7840;42.702;23.296;2023-08-08T01:08:35;94947.63;;;14.62;100.00
15477;BME280;7840;42.702;23.296;2023-08-08T01:11:08;94958.28;;;14.57;100.00
15477;BME280;7840;42.702;23.296;2023-08-08T01:13:37;94948.72;;;14.51;100.00
15477;BME280;7840;42.702;23.296;2023-08-08T01:16:06;94954.56;;;14.58;100.00
15477;BME280;7840;42.702;23.296;2023-08-08T01:18:35;94962.00;;;14.61;100.00
15477;BME280;7840;42.702;23.296;2023-08-08T01:21:04;94945.50;;;14.54;100.00
15477;BME280;7840;42.702;23.296;2023-08-08T01:23:40;94940.72;;;14.41;100.00
15477;BME280;7840;42.702;23.296;2023-08-08T01:26:10;94954.59;;;14.43;100.00
15477;BME280;7840;42.702;23.296;2023-08-08T01:28:38;94947.66;;;14.52;100.00
15477;BME280;7840;42.702;23.296;2023-08-08T01:31:06;94954.03;;;14.56;100.00
15477;BME280;7840;42.702;23.296;2023-08-08T01:33:33;94961.78;;;14.53;100.00
15477;BME280;7840;42.702;23.296;2023-08-08T01:36:05;94964.19;;;14.44;100.00
15477;BME280;7840;42.702;23.296;2023-08-08T01:38:38;94969.25;;;14.50;100.00
15477;BME280;7840;42.702;23.296;2023-08-08T01:41:09;94975.13;;;14.42;100.00
15477;BME280;7840;42.702;23.296;2023-08-08T01:43:38;94974.84;;;14.39;100.00
15477;BME280;7840;42.702;23.296;2023-08-08T01:46:06;94978.88;;;14.41;100.00
15477;BME280;7840;42.702;23.296;2023-08-08T01:48:34;94981.03;;;14.29;100.00
15477;BME280;7840;42.702;23.296;2023-08-08T01:51:02;94976.44;;;14.40;100.00
15477;BME280;7840;42.702;23.296;2023-08-08T01:53:29;94989.31;;;14.28;100.00
15477;BME280;7840;42.702;23.296;2023-08-08T01:55:57;94993.00;;;14.27;100.00
15477;BME280;7840;42.702;23.296;2023-08-08T01:58:26;94991.41;;;14.26;100.00
15477;BME280;7840;42.702;23.296;2023-08-08T02:00:54;95004.22;;;14.23;100.00
15477;BME280;7840;42.702;23.296;2023-08-08T02:03:21;95003.66;;;14.27;100.00
15477;BME280;7840;42.702;23.296;2023-08-08T02:05:49;95008.47;;;14.35;100.00
15477;BME280;7840;42.702;23.296;2023-08-08T02:08:16;95008.97;;;14.37;100.00
15477;BME280;7840;42.702;23.296;2023-08-08T02:10:44;95009.50;;;14.34;100.00
15477;BME280;7840;42.702;23.296;2023-08-08T02:13:12;95004.44;;;14.37;100.00
15477;BME280;7840;42.702;23.296;2023-08-08T02:15:41;95004.22;;;14.23;100.00
15477;BME280;7840;42.702;23.296;2023-08-08T02:18:08;95006.63;;;14.20;100.00
15477;BME280;7840;42.702;23.296;2023-08-08T02:20:37;95010.34;;;14.24;100.00
15477;BME280;7840;42.702;23.296;2023-08-08T02:23:05;95014.59;;;14.30;100.00
15477;BME280;7840;42.702;23.296;2023-08-08T02:25:32;95023.88;;;14.43;100.00
15477;BME280;7840;42.702;23.296;2023-08-08T02:28:00;95026.56;;;14.48;100.00
15477;BME280;7840;42.702;23.296;2023-08-08T02:30:27;95031.59;;;14.44;100.00
15477;BME280;7840;42.702;23.296;2023-08-08T02:32:56;95041.22;;;14.50;100.00
15477;BME280;7840;42.702;23.296;2023-08-08T02:35:24;95028.16;;;14.49;100.00
15477;BME280;7840;42.702;23.296;2023-08-08T02:37:51;95018.56;;;14.33;100.00
15477;BME280;7840;42.702;23.296;2023-08-08T02:40:19;95020.72;;;14.36;100.00
15477;BME280;7840;42.702;23.296;2023-08-08T02:42:49;95018.84;;;14.46;100.00
15477;BME280;7840;42.702;23.296;2023-08-08T02:45:17;95032.72;;;14.48;100.00
15477;BME280;7840;42.702;23.296;2023-08-08T02:47:44;95033.47;;;14.39;100.00
15477;BME280;7840;42.702;23.296;2023-08-08T02:50:13;95041.72;;;14.58;100.00
15477;BME280;7840;42.702;23.296;2023-08-08T02:52:41;95034.81;;;14.57;100.00
15477;BME280;7840;42.702;23.296;2023-08-08T02:55:09;95048.34;;;14.70;100.00
15477;BME280;7840;42.702;23.296;2023-08-08T02:57:37;95047.28;;;14.71;100.00
15477;BME280;7840;42.702;23.296;2023-08-08T03:00:05;95052.31;;;14.73;100.00
15477;BME280;7840;42.702;23.296;2023-08-08T03:02:36;95055.78;;;14.78;100.00
15477;BME280;7840;42.702;23.296;2023-08-08T03:05:04;95059.00;;;14.75;100.00
15477;BME280;7840;42.702;23.296;2023-08-08T03:07:33;95062.72;;;14.74;100.00
15477;BME280;7840;42.702;23.296;2023-08-08T03:10:01;95057.94;;;14.76;100.00
15477;BME280;7840;42.702;23.296;2023-08-08T03:12:28;95056.56;;;14.79;100.00
15477;BME280;7840;42.702;23.296;2023-08-08T03:14:56;95058.47;;;14.73;100.00
15477;BME280;7840;42.702;23.296;2023-08-08T03:17:24;95063.78;;;14.78;100.00
15477;BME280;7840;42.702;23.296;2023-08-08T03:19:51;95065.41;;;14.69;100.00
15477;BME280;7840;42.702;23.296;2023-08-08T03:22:19;95071.78;;;14.73;100.00
15477;BME280;7840;42.702;23.296;2023-08-08T03:24:48;95073.38;;;14.74;100.00
15477;BME280;7840;42.702;23.296;2023-08-08T03:27:15;95067.03;;;14.60;100.00
15477;BME280;7840;42.702;23.296;2023-08-08T03:29:43;95067.81;;;14.66;100.00
15477;BME280;7840;42.702;23.296;2023-08-08T03:32:10;95076.31;;;14.73;100.00
15477;BME280;7840;42.702;23.296;2023-08-08T03:34:38;95076.09;;;14.69;100.00
15477;BME280;7840;42.702;23.296;2023-08-08T03:37:05;95065.94;;;14.66;100.00
15477;BME280;7840;42.702;23.296;2023-08-08T03:39:35;95069.97;;;14.54;100.00
15477;BME280;7840;42.702;23.296;2023-08-08T03:42:04;95067.81;;;14.61;100.00
15477;BME280;7840;42.702;23.296;2023-08-08T03:44:32;95073.16;;;14.61;100.00
15477;BME280;7840;42.702;23.296;2023-08-08T03:46:59;95077.72;;;14.55;100.00
15477;BME280;7840;42.702;23.296;2023-08-08T03:49:27;95076.66;;;14.56;100.00
15477;BME280;7840;42.702;23.296;2023-08-08T03:51:54;95077.72;;;14.55;100.00
15477;BME280;7840;42.702;23.296;2023-08-08T03:54:22;95070.81;;;14.49;100.00
15477;BME280;7840;42.702;23.296;2023-08-08T03:56:50;95068.38;;;14.58;100.00
15477;BME280;7840;42.702;23.296;2023-08-08T03:59:18;95067.81;;;14.71;100.00
15477;BME280;7840;42.702;23.296;2023-08-08T04:01:46;95076.03;;;14.74;100.00
15477;BME280;7840;42.702;23.296;2023-08-08T04:04:14;95076.03;;;14.80;100.00
15477;BME280;7840;42.702;23.296;2023-08-08T04:06:41;95098.72;;;14.72;100.00
15477;BME280;7840;42.702;23.296;2023-08-08T04:09:09;95100.63;;;14.61;100.00
15477;BME280;7840;42.702;23.296;2023-08-08T04:11:36;95097.41;;;14.69;100.00
15477;BME280;7840;42.702;23.296;2023-08-08T04:14:04;95103.28;;;14.61;100.00
15477;BME280;7840;42.702;23.296;2023-08-08T04:16:32;95102.47;;;14.66;100.00
15477;BME280;7840;42.702;23.296;2023-08-08T04:19:00;95100.66;;;14.51;100.00
15477;BME280;7840;42.702;23.296;2023-08-08T04:21:29;95100.66;;;14.51;100.00
15477;BME280;7840;42.702;23.296;2023-08-08T04:23:58;95101.69;;;14.65;100.00
15477;BME280;7840;42.702;23.296;2023-08-08T04:26:26;95119.81;;;14.58;100.00
15477;BME280;7840;42.702;23.296;2023-08-08T04:28:53;95127.31;;;14.51;100.00
15477;BME280;7840;42.702;23.296;2023-08-08T04:31:21;95133.69;;;14.60;100.00
15477;BME280;7840;42.702;23.296;2023-08-08T04:33:52;95121.94;;;14.71;100.00
15477;BME280;7840;42.702;23.296;2023-08-08T04:36:24;95131.81;;;14.71;100.00
15477;BME280;7840;42.702;23.296;2023-08-08T04:38:51;95119.25;;;14.76;100.00
15477;BME280;7840;42.702;23.296;2023-08-08T04:41:19;95112.28;;;14.86;100.00
15477;BME280;7840;42.702;23.296;2023-08-08T04:43:47;95104.78;;;14.98;100.00
15477;BME280;7840;42.702;23.296;2023-08-08T04:46:14;95101.28;;;15.02;100.00
15477;BME280;7840;42.702;23.296;2023-08-08T04:48:42;95113.22;;;15.20;100.00
15477;BME280;7840;42.702;23.296;2023-08-08T04:51:11;95124.09;;;15.34;100.00
15477;BME280;7840;42.702;23.296;2023-08-08T04:53:38;95131.88;;;15.25;100.00
15477;BME280;7840;42.702;23.296;2023-08-08T04:56:06;95141.47;;;15.31;100.00
15477;BME280;7840;42.702;23.296;2023-08-08T04:58:33;95154.25;;;15.35;100.00
15477;BME280;7840;42.702;23.296;2023-08-08T05:01:01;95157.44;;;15.37;100.00
15477;BME280;7840;42.702;23.296;2023-08-08T05:03:29;95154.03;;;15.26;100.00
15477;BME280;7840;42.702;23.296;2023-08-08T05:05:56;95164.69;;;15.26;100.00
15477;BME280;7840;42.702;23.296;2023-08-08T05:08:26;95182.00;;;15.33;100.00
15477;BME280;7840;42.702;23.296;2023-08-08T05:10:54;95190.00;;;15.39;100.00
15477;BME280;7840;42.702;23.296;2023-08-08T05:13:21;95187.34;;;15.33;100.00
15477;BME280;7840;42.702;23.296;2023-08-08T05:15:49;95190.75;;;15.49;100.00
15477;BME280;7840;42.702;23.296;2023-08-08T05:18:16;95195.56;;;15.42;100.00
15477;BME280;7840;42.702;23.296;2023-08-08T05:20:51;95194.19;;;15.65;100.00
15477;BME280;7840;42.702;23.296;2023-08-08T05:23:18;95196.00;;;15.75;100.00
15477;BME280;7840;42.702;23.296;2023-08-08T05:25:47;95196.19;;;15.83;100.00
15477;BME280;7840;42.702;23.296;2023-08-08T05:28:15;95190.44;;;15.56;100.00
15477;BME280;7840;42.702;23.296;2023-08-08T05:30:42;95205.63;;;15.71;100.00
15477;BME280;7840;42.702;23.296;2023-08-08T05:33:11;95208.63;;;15.54;100.00
15477;BME280;7840;42.702;23.296;2023-08-08T05:35:39;95207.28;;;15.62;100.00
15477;BME280;7840;42.702;23.296;2023-08-08T05:38:06;95227.16;;;15.90;100.00
15477;BME280;7840;42.702;23.296;2023-08-08T05:40:35;95226.50;;;16.13;100.00
15477;BME280;7840;42.702;23.296;2023-08-08T05:43:04;95233.47;;;16.09;100.00
15477;BME280;7840;42.702;23.296;2023-08-08T05:45:32;95229.56;;;16.30;100.00
15477;BME280;7840;42.702;23.296;2023-08-08T05:47:59;95239.66;;;16.38;100.00
15477;BME280;7840;42.702;23.296;2023-08-08T05:50:27;95249.75;;;16.47;100.00
15477;BME280;7840;42.702;23.296;2023-08-08T05:52:54;95245.50;;;16.46;100.00
15477;BME280;7840;42.702;23.296;2023-08-08T05:55:22;95244.31;;;16.62;100.00
15477;BME280;7840;42.702;23.296;2023-08-08T05:57:49;95244.97;;;16.49;100.00
15477;BME280;7840;42.702;23.296;2023-08-08T06:00:19;95245.47;;;16.51;100.00
15477;BME280;7840;42.702;23.296;2023-08-08T06:02:46;95244.38;;;16.52;100.00
15477;BME280;7840;42.702;23.296;2023-08-08T06:05:16;95257.72;;;16.57;100.00
15477;BME280;7840;42.702;23.296;2023-08-08T06:07:43;95266.88;;;16.51;100.00
15477;BME280;7840;42.702;23.296;2023-08-08T06:10:11;95255.72;;;16.38;100.00
15477;BME280;7840;42.702;23.296;2023-08-08T06:12:38;95258.84;;;16.51;100.00
15477;BME280;7840;42.702;23.296;2023-08-08T06:15:07;95261.44;;;16.61;100.00
15477;BME280;7840;42.702;23.296;2023-08-08T06:17:36;95249.75;;;16.47;100.00
15477;BME280;7840;42.702;23.296;2023-08-08T06:22:33;95252.25;;;16.77;100.00
15477;BME280;7840;42.702;23.296;2023-08-08T06:25:00;95253.91;;;16.68;100.00
15477;BME280;7840;42.702;23.296;2023-08-08T06:27:29;95253.03;;;16.78;100.00
15477;BME280;7840;42.702;23.296;2023-08-08T06:29:57;95255.56;;;16.59;100.00
15477;BME280;7840;42.702;23.296;2023-08-08T06:32:25;95262.13;;;16.82;100.00
15477;BME280;7840;42.702;23.296;2023-08-08T06:34:54;95251.94;;;17.08;100.00
15477;BME280;7840;42.702;23.296;2023-08-08T06:37:21;95240.94;;;17.38;100.00
15477;BME280;7840;42.702;23.296;2023-08-08T06:39:49;95247.22;;;17.53;100.00
15477;BME280;7840;42.702;23.296;2023-08-08T06:42:16;95247.22;;;17.53;100.00
15477;BME280;7840;42.702;23.296;2023-08-08T06:44:44;95246.56;;;17.61;100.00
15477;BME280;7840;42.702;23.296;2023-08-08T06:47:12;95253.47;;;17.43;100.00
15477;BME280;7840;42.702;23.296;2023-08-08T06:49:39;95253.25;;;17.39;100.00
15477;BME280;7840;42.702;23.296;2023-08-08T06:52:08;95256.50;;;17.36;100.00
15477;BME280;7840;42.702;23.296;2023-08-08T06:54:36;95265.88;;;17.10;100.00
15477;BME280;7840;42.702;23.296;2023-08-08T06:57:04;95265.72;;;16.96;100.00
15477;BME280;7840;42.702;23.296;2023-08-08T06:59:31;95270.63;;;16.89;100.00
15477;BME280;7840;42.702;23.296;2023-08-08T07:01:59;95275.00;;;17.09;100.00
15477;BME280;7840;42.702;23.296;2023-08-08T07:04:27;95268.91;;;16.98;100.00
15477;BME280;7840;42.702;23.296;2023-08-08T07:06:54;95277.13;;;17.07;100.00
15477;BME280;7840;42.702;23.296;2023-08-08T07:09:23;95257.44;;;17.21;100.00
15477;BME280;7840;42.702;23.296;2023-08-08T07:11:51;95260.66;;;17.47;100.00
15477;BME280;7840;42.702;23.296;2023-08-08T07:14:18;95259.66;;;17.62;100.00
15477;BME280;7840;42.702;23.296;2023-08-08T07:16:46;95261.56;;;17.62;100.00
15477;BME280;7840;42.702;23.296;2023-08-08T07:19:14;95256.47;;;17.84;100.00
15477;BME280;7840;42.702;23.296;2023-08-08T07:21:45;95263.06;;;17.73;100.00
15477;BME280;7840;42.702;23.296;2023-08-08T07:24:12;95256.78;;;17.59;100.00
15477;BME280;7840;42.702;23.296;2023-08-08T07:26:41;95268.06;;;17.56;100.00
15477;BME280;7840;42.702;23.296;2023-08-08T07:29:09;95265.38;;;17.56;100.00
15477;BME280;7840;42.702;23.296;2023-08-08T07:31:36;95269.19;;;17.26;100.00
15477;BME280;7840;42.702;23.296;2023-08-08T07:34:04;95280.13;;;17.29;100.00
15477;BME280;7840;42.702;23.296;2023-08-08T07:36:31;95265.34;;;17.37;100.00
15477;BME280;7840;42.702;23.296;2023-08-08T07:38:59;95268.63;;;17.53;100.00
15477;BME280;7840;42.702;23.296;2023-08-08T07:41:26;95265.69;;;17.78;100.00
15477;BME280;7840;42.702;23.296;2023-08-08T07:43:55;95268.03;;;18.03;100.00
15477;BME280;7840;42.702;23.296;2023-08-08T07:46:23;95291.41;;;17.98;100.00
15477;BME280;7840;42.702;23.296;2023-08-08T07:48:51;95273.91;;;18.06;100.00
15477;BME280;7840;42.702;23.296;2023-08-08T07:51:18;95271.34;;;17.47;100.00
15477;BME280;7840;42.702;23.296;2023-08-08T07:53:46;95280.72;;;17.50;100.00
15477;BME280;7840;42.702;23.296;2023-08-08T07:56:14;95270.72;;;17.85;100.00
15477;BME280;7840;42.702;23.296;2023-08-08T07:58:41;95270.22;;;18.01;100.00
15477;BME280;7840;42.702;23.296;2023-08-08T08:01:10;95276.28;;;17.88;100.00
15477;BME280;7840;42.702;23.296;2023-08-08T08:03:39;95258.28;;;18.13;100.00
15477;BME280;7840;42.702;23.296;2023-08-08T08:06:07;95280.06;;;18.44;98.87
15477;BME280;7840;42.702;23.296;2023-08-08T08:08:35;95274.88;;;18.34;99.61
15477;BME280;7840;42.702;23.296;2023-08-08T08:11:02;95279.84;;;18.59;98.45
15477;BME280;7840;42.702;23.296;2023-08-08T08:13:30;95279.78;;;18.83;96.46
15477;BME280;7840;42.702;23.296;2023-08-08T08:15:58;95270.00;;;18.54;98.35
15477;BME280;7840;42.702;23.296;2023-08-08T08:18:27;95263.84;;;18.73;99.44
15477;BME280;7840;42.702;23.296;2023-08-08T08:20:55;95271.72;;;19.16;100.00
15477;BME280;7840;42.702;23.296;2023-08-08T08:23:23;95268.28;;;18.96;90.06
15477;BME280;7840;42.702;23.296;2023-08-08T08:25:50;95268.50;;;19.00;95.91
15477;BME280;7840;42.702;23.296;2023-08-08T08:28:18;95261.59;;;19.40;93.13
15477;BME280;7840;42.702;23.296;2023-08-08T08:30:45;95271.38;;;19.36;92.44
15477;BME280;7840;42.702;23.296;2023-08-08T08:33:13;95270.91;;;19.61;94.32
15477;BME280;7840;42.702;23.296;2023-08-08T08:35:42;95260.81;;;19.39;94.22
15477;BME280;7840;42.702;23.296;2023-08-08T08:38:11;95260.66;;;19.03;93.29
15477;BME280;7840;42.702;23.296;2023-08-08T08:40:40;95274.41;;;18.83;92.42
15477;BME280;7840;42.702;23.296;2023-08-08T08:43:09;95269.19;;;19.05;89.72
15477;BME280;7840;42.702;23.296;2023-08-08T08:45:38;95274.50;;;19.10;85.13
15477;BME280;7840;42.702;23.296;2023-08-08T08:48:09;95258.88;;;18.80;88.52
15477;BME280;7840;42.702;23.296;2023-08-08T08:50:39;95263.72;;;19.57;88.48
15477;BME280;7840;42.702;23.296;2023-08-08T08:53:09;95270.97;;;19.29;84.97
15477;BME280;7840;42.702;23.296;2023-08-08T08:55:39;95271.91;;;19.19;88.52
15477;BME280;7840;42.702;23.296;2023-08-08T08:58:07;95259.75;;;19.68;86.61
15477;BME280;7840;42.702;23.296;2023-08-08T09:00:35;95261.09;;;19.38;76.93
15477;BME280;7840;42.702;23.296;2023-08-08T09:03:04;95258.81;;;19.45;87.92
15477;BME280;7840;42.702;23.296;2023-08-08T09:05:32;95258.41;;;20.20;85.34
15477;BME280;7840;42.702;23.296;2023-08-08T09:08:01;95265.72;;;19.79;88.13
15477;BME280;7840;42.702;23.296;2023-08-08T09:10:31;95267.88;;;19.35;89.82
15477;BME280;7840;42.702;23.296;2023-08-08T09:12:59;95256.34;;;19.90;89.14
15477;BME280;7840;42.702;23.296;2023-08-08T09:15:30;95258.16;;;20.31;82.68
15477;BME280;7840;42.702;23.296;2023-08-08T09:17:58;95266.13;;;20.49;77.88
15477;BME280;7840;42.702;23.296;2023-08-08T09:22:56;95251.84;;;20.13;84.81
15477;BME280;7840;42.702;23.296;2023-08-08T09:25:24;95258.44;;;19.93;83.47
15477;BME280;7840;42.702;23.296;2023-08-08T09:27:53;95264.16;;;19.64;83.83
15477;BME280;7840;42.702;23.296;2023-08-08T09:30:21;95247.50;;;19.62;83.47
15477;BME280;7840;42.702;23.296;2023-08-08T09:32:48;95265.59;;;19.56;82.88
15477;BME280;7840;42.702;23.296;2023-08-08T09:35:16;95277.75;;;19.67;81.72
15477;BME280;7840;42.702;23.296;2023-08-08T09:37:45;95273.16;;;20.09;79.70
15477;BME280;7840;42.702;23.296;2023-08-08T09:40:12;95265.09;;;20.59;77.54
15477;BME280;7840;42.702;23.296;2023-08-08T09:42:41;95272.34;;;20.59;75.35
15477;BME280;7840;42.702;23.296;2023-08-08T09:45:10;95273.28;;;20.54;75.55
15477;BME280;7840;42.702;23.296;2023-08-08T09:47:38;95274.13;;;20.86;72.75
15477;BME280;7840;42.702;23.296;2023-08-08T09:50:07;95277.50;;;20.33;75.11
15477;BME280;7840;42.702;23.296;2023-08-08T09:52:35;95271.38;;;20.55;72.81
15477;BME280;7840;42.702;23.296;2023-08-08T09:55:05;95272.44;;;20.67;74.81
15477;BME280;7840;42.702;23.296;2023-08-08T09:57:33;95266.63;;;20.74;73.44
15477;BME280;7840;42.702;23.296;2023-08-08T10:00:02;95261.00;;;20.84;71.59
15477;BME280;7840;42.702;23.296;2023-08-08T10:02:32;95261.63;;;20.81;74.71
15477;BME280;7840;42.702;23.296;2023-08-08T10:05:01;95265.66;;;21.23;73.40
15477;BME280;7840;42.702;23.296;2023-08-08T10:07:29;95265.56;;;21.28;73.69
15477;BME280;7840;42.702;23.296;2023-08-08T10:09:57;95257.09;;;21.52;72.74
15477;BME280;7840;42.702;23.296;2023-08-08T10:12:26;95269.09;;;21.69;70.82
15477;BME280;7840;42.702;23.296;2023-08-08T10:14:54;95261.47;;;21.71;70.25
15477;BME280;7840;42.702;23.296;2023-08-08T10:17:22;95260.59;;;21.53;67.71
15477;BME280;7840;42.702;23.296;2023-08-08T10:19:54;95262.94;;;21.85;69.70
15477;BME280;7840;42.702;23.296;2023-08-08T10:22:24;95271.72;;;22.00;69.19
15477;BME280;7840;42.702;23.296;2023-08-08T10:24:52;95252.91;;;22.17;65.81
15477;BME280;7840;42.702;23.296;2023-08-08T10:27:33;95257.13;;;21.61;68.00
15477;BME280;7840;42.702;23.296;2023-08-08T10:30:03;95254.69;;;21.20;72.30
15477;BME280;7840;42.702;23.296;2023-08-08T10:32:38;95260.69;;;20.86;73.39
15477;BME280;7840;42.702;23.296;2023-08-08T10:35:09;95260.31;;;21.01;75.69
15477;BME280;7840;42.702;23.296;2023-08-08T10:37:37;95256.31;;;21.52;71.14
15477;BME280;7840;42.702;23.296;2023-08-08T10:40:06;95251.81;;;21.78;69.17
15477;BME280;7840;42.702;23.296;2023-08-08T10:42:43;95243.03;;;22.21;67.26
15477;BME280;7840;42.702;23.296;2023-08-08T10:45:12;95239.09;;;22.10;65.59
15477;BME280;7840;42.702;23.296;2023-08-08T10:47:41;95247.06;;;21.36;68.62
15477;BME280;7840;42.702;23.296;2023-08-08T10:50:11;95244.97;;;21.72;67.28
15477;BME280;7840;42.702;23.296;2023-08-08T10:52:51;95242.66;;;21.97;68.71
15477;BME280;7840;42.702;23.296;2023-08-08T10:55:21;95238.28;;;22.35;65.59
15477;BME280;7840;42.702;23.296;2023-08-08T10:57:57;95238.25;;;23.05;63.44
15477;BME280;7840;42.702;23.296;2023-08-08T11:00:25;95238.63;;;22.60;61.18
15477;BME280;7840;42.702;23.296;2023-08-08T11:02:54;95236.72;;;22.60;62.42
15477;BME280;7840;42.702;23.296;2023-08-08T11:05:24;95233.84;;;22.57;62.38
15477;BME280;7840;42.702;23.296;2023-08-08T11:07:54;95235.13;;;22.68;64.17
15477;BME280;7840;42.702;23.296;2023-08-08T11:10:22;95246.56;;;22.48;62.72
15477;BME280;7840;42.702;23.296;2023-08-08T11:12:58;95239.84;;;23.06;61.19
15477;BME280;7840;42.702;23.296;2023-08-08T11:15:26;95236.19;;;23.10;62.80
15477;BME280;7840;42.702;23.296;2023-08-08T11:17:54;95230.00;;;23.10;60.40
15477;BME280;7840;42.702;23.296;2023-08-08T11:20:24;95238.53;;;23.29;60.99
15477;BME280;7840;42.702;23.296;2023-08-08T11:22:53;95240.94;;;23.22;61.33
15477;BME280;7840;42.702;23.296;2023-08-08T11:25:21;95241.00;;;22.35;63.45
15477;BME280;7840;42.702;23.296;2023-08-08T11:27:50;95229.72;;;22.51;63.84
15477;BME280;7840;42.702;23.296;2023-08-08T11:30:18;95222.03;;;23.22;62.39
15477;BME280;7840;42.702;23.296;2023-08-08T11:32:47;95226.16;;;23.11;61.76
15477;BME280;7840;42.702;23.296;2023-08-08T11:35:17;95221.97;;;23.78;61.33
15477;BME280;7840;42.702;23.296;2023-08-08T11:37:46;95228.94;;;22.59;62.00
15477;BME280;7840;42.702;23.296;2023-08-08T11:40:14;95223.22;;;22.43;61.56
15477;BME280;7840;42.702;23.296;2023-08-08T11:42:43;95218.09;;;22.76;60.73
15477;BME280;7840;42.702;23.296;2023-08-08T11:45:13;95222.47;;;23.71;59.86
15477;BME280;7840;42.702;23.296;2023-08-08T11:47:41;95219.28;;;23.31;58.04
15477;BME280;7840;42.702;23.296;2023-08-08T11:50:10;95217.69;;;23.30;59.72
15477;BME280;7840;42.702;23.296;2023-08-08T11:52:41;95209.88;;;22.47;62.58
15477;BME280;7840;42.702;23.296;2023-08-08T11:55:10;95217.31;;;22.50;64.82
15477;BME280;7840;42.702;23.296;2023-08-08T11:57:39;95206.13;;;23.12;60.32
15477;BME280;7840;42.702;23.296;2023-08-08T12:00:09;95211.34;;;23.34;59.72
15477;BME280;7840;42.702;23.296;2023-08-08T12:02:39;95202.97;;;23.10;60.03
15477;BME280;7840;42.702;23.296;2023-08-08T12:05:08;95200.00;;;22.68;60.61
15477;BME280;7840;42.702;23.296;2023-08-08T12:07:37;95190.81;;;23.71;61.39
15477;BME280;7840;42.702;23.296;2023-08-08T12:10:14;95181.84;;;24.84;55.36
15477;BME280;7840;42.702;23.296;2023-08-08T12:12:42;95191.81;;;24.92;56.73
15477;BME280;7840;42.702;23.296;2023-08-08T12:15:12;95192.16;;;25.48;52.31
15477;BME280;7840;42.702;23.296;2023-08-08T12:17:42;95190.25;;;25.49;51.66
15477;BME280;7840;42.702;23.296;2023-08-08T12:20:10;95190.47;;;25.56;51.63
15477;BME280;7840;42.702;23.296;2023-08-08T12:22:38;95182.66;;;24.64;53.26
15477;BME280;7840;42.702;23.296;2023-08-08T12:25:06;95178.97;;;24.06;56.19
15477;BME280;7840;42.702;23.296;2023-08-08T12:27:36;95163.16;;;23.66;57.58
15477;BME280;7840;42.702;23.296;2023-08-08T12:30:06;95169.25;;;23.16;58.36
15477;BME280;7840;42.702;23.296;2023-08-08T12:32:34;95168.28;;;23.88;58.01
15477;BME280;7840;42.702;23.296;2023-08-08T12:35:01;95172.38;;;23.94;55.93
15477;BME280;7840;42.702;23.296;2023-08-08T12:37:29;95169.47;;;24.20;56.03
15477;BME280;7840;42.702;23.296;2023-08-08T12:39:57;95166.22;;;23.56;57.29
15477;BME280;7840;42.702;23.296;2023-08-08T12:42:24;95158.03;;;23.73;57.25
15477;BME280;7840;42.702;23.296;2023-08-08T12:44:54;95166.97;;;25.02;53.25
15477;BME280;7840;42.702;23.296;2023-08-08T12:47:21;95168.50;;;24.04;54.80
15477;BME280;7840;42.702;23.296;2023-08-08T12:49:49;95169.72;;;23.18;57.80
15477;BME280;7840;42.702;23.296;2023-08-08T12:52:20;95176.91;;;23.14;60.09
15477;BME280;7840;42.702;23.296;2023-08-08T12:54:48;95163.34;;;23.90;56.76
15477;BME280;7840;42.702;23.296;2023-08-08T12:57:15;95169.44;;;24.95;54.53
15477;BME280;7840;42.702;23.296;2023-08-08T12:59:43;95159.59;;;25.24;53.61
15477;BME280;7840;42.702;23.296;2023-08-08T13:02:12;95162.16;;;24.75;53.07
15477;BME280;7840;42.702;23.296;2023-08-08T13:04:39;95160.47;;;24.37;53.58